createdAt,value
2017-02-06T00:00:21.305Z,19.46
2017-02-06T00:01:01.947Z,19.4
2017-02-06T00:01:42.597Z,19.53
2017-02-06T00:02:23.803Z,19.33
2017-02-06T00:03:04.523Z,19.43
2017-02-06T00:03:45.242Z,19.47
2017-02-06T00:04:25.902Z,19.39
2017-02-06T00:05:06.593Z,19.5
2017-02-06T00:05:47.318Z,19.53
2017-02-06T00:06:27.976Z,19.51
2017-02-06T00:07:08.610Z,19.54
2017-02-06T00:07:49.310Z,19.4
2017-02-06T00:08:30.019Z,19.55
2017-02-06T00:09:10.664Z,19.48
2017-02-06T00:09:51.309Z,19.54
2017-02-06T00:10:32.003Z,19.42
2017-02-06T00:11:12.636Z,19.46
2017-02-06T00:11:53.302Z,19.47
2017-02-06T00:12:33.987Z,19.5
2017-02-06T00:13:14.634Z,19.46
2017-02-06T00:13:55.285Z,19.4
2017-02-06T00:14:36.030Z,19.5
2017-02-06T00:15:16.747Z,19.5
2017-02-06T00:15:57.388Z,19.54
2017-02-06T00:16:38.123Z,19.4
2017-02-06T00:17:18.845Z,19.54
2017-02-06T00:17:59.528Z,19.46
2017-02-06T00:18:40.166Z,19.51
2017-02-06T00:19:20.874Z,19.4
2017-02-06T00:20:01.603Z,19.46
2017-02-06T00:20:42.241Z,19.43
2017-02-06T00:21:22.958Z,19.47
2017-02-06T00:22:03.607Z,19.55
2017-02-06T00:22:44.319Z,19.39
2017-02-06T00:23:24.971Z,19.5
2017-02-06T00:24:05.651Z,19.53
2017-02-06T00:24:46.351Z,19.4
2017-02-06T00:25:26.989Z,19.47
2017-02-06T00:26:07.633Z,19.48
2017-02-06T00:26:48.352Z,19.42
2017-02-06T00:27:28.985Z,19.42
2017-02-06T00:28:09.646Z,19.36
2017-02-06T00:28:50.282Z,19.42
2017-02-06T00:29:30.988Z,19.43
2017-02-06T00:30:11.641Z,19.35
2017-02-06T00:30:52.351Z,19.4
2017-02-06T00:31:33.069Z,19.53
2017-02-06T00:32:13.698Z,19.46
2017-02-06T00:32:54.362Z,19.43
2017-02-06T00:33:35.070Z,19.43
2017-02-06T00:34:15.708Z,19.43
2017-02-06T00:34:57.230Z,19.43
2017-02-06T00:35:37.927Z,19.51
2017-02-06T00:36:18.554Z,19.46
2017-02-06T00:36:59.197Z,19.47
2017-02-06T00:37:39.892Z,19.47
2017-02-06T00:38:20.525Z,19.46
2017-02-06T00:39:01.154Z,19.38
2017-02-06T00:39:41.818Z,19.5
2017-02-06T00:40:22.484Z,19.54
2017-02-06T00:41:03.167Z,19.46
2017-02-06T00:41:43.905Z,19.42
2017-02-06T00:42:24.570Z,19.48
2017-02-06T00:43:05.209Z,19.53
2017-02-06T00:43:45.894Z,19.47
2017-02-06T00:44:26.598Z,19.48
2017-02-06T00:45:07.232Z,19.43
2017-02-06T00:45:47.917Z,19.38
2017-02-06T00:46:28.629Z,19.51
2017-02-06T00:47:09.280Z,19.46
2017-02-06T00:47:49.912Z,19.51
2017-02-06T00:48:30.616Z,19.5
2017-02-06T00:49:11.259Z,19.42
2017-02-06T00:49:51.914Z,19.42
2017-02-06T00:50:32.610Z,19.47
2017-02-06T00:51:13.319Z,19.42
2017-02-06T00:51:53.957Z,19.47
2017-02-06T00:52:34.642Z,19.4
2017-02-06T00:53:15.407Z,19.46
2017-02-06T00:53:56.141Z,19.48
2017-02-06T00:54:36.791Z,19.42
2017-02-06T00:55:17.440Z,19.4
2017-02-06T00:55:58.110Z,19.42
2017-02-06T00:56:38.744Z,19.47
2017-02-06T00:57:19.380Z,19.4
2017-02-06T00:58:00.083Z,19.4
2017-02-06T00:58:40.753Z,19.36
2017-02-06T00:59:21.463Z,19.5
2017-02-06T01:00:02.106Z,19.36
2017-02-06T01:00:42.811Z,19.4
2017-02-06T01:01:23.465Z,19.4
2017-02-06T01:02:04.145Z,19.38
2017-02-06T01:02:44.907Z,19.38
2017-02-06T01:03:25.571Z,19.5
2017-02-06T01:04:06.291Z,19.4
2017-02-06T01:04:47.061Z,19.38
2017-02-06T01:05:27.686Z,19.47
2017-02-06T01:06:08.332Z,19.4
2017-02-06T01:06:49.036Z,19.36
2017-02-06T01:07:29.803Z,19.53
2017-02-06T01:08:10.500Z,19.4
2017-02-06T01:08:51.167Z,19.38
2017-02-06T01:09:32.555Z,19.43
2017-02-06T01:10:13.194Z,19.51
2017-02-06T01:10:53.834Z,19.43
2017-02-06T01:11:34.568Z,19.4
2017-02-06T01:12:15.207Z,19.46
2017-02-06T01:12:55.836Z,19.38
2017-02-06T01:13:36.525Z,19.4
2017-02-06T01:14:17.180Z,19.42
2017-02-06T01:14:57.796Z,19.38
2017-02-06T01:15:38.542Z,19.46
2017-02-06T01:16:19.195Z,19.36
2017-02-06T01:16:59.838Z,19.42
2017-02-06T01:17:40.532Z,19.46
2017-02-06T01:18:21.219Z,19.42
2017-02-06T01:19:01.852Z,19.47
2017-02-06T01:19:42.491Z,19.43
2017-02-06T01:20:23.181Z,19.39
2017-02-06T01:21:03.823Z,19.38
2017-02-06T01:21:44.491Z,19.35
2017-02-06T01:22:25.173Z,19.32
2017-02-06T01:23:06.202Z,19.33
2017-02-06T01:23:46.984Z,19.47
2017-02-06T01:24:30.210Z,19.38
2017-02-06T01:25:10.840Z,19.43
2017-02-06T01:25:51.477Z,19.36
2017-02-06T01:26:32.137Z,19.43
2017-02-06T01:27:12.836Z,19.35
2017-02-06T01:27:53.465Z,19.4
2017-02-06T01:28:34.141Z,19.32
2017-02-06T01:29:15.334Z,19.33
2017-02-06T01:29:55.952Z,19.5
2017-02-06T01:30:36.624Z,19.46
2017-02-06T01:31:17.271Z,19.43
2017-02-06T01:31:57.928Z,19.42
2017-02-06T01:32:38.639Z,19.35
2017-02-06T01:33:19.256Z,19.42
2017-02-06T01:33:59.871Z,19.38
2017-02-06T01:34:40.503Z,19.42
2017-02-06T01:35:21.138Z,19.33
2017-02-06T01:36:01.764Z,19.42
2017-02-06T01:36:42.402Z,19.33
2017-02-06T01:37:23.047Z,19.32
2017-02-06T01:38:03.698Z,19.43
2017-02-06T01:38:44.333Z,19.35
2017-02-06T01:39:24.961Z,19.47
2017-02-06T01:40:05.634Z,19.42
2017-02-06T01:40:46.432Z,19.47
2017-02-06T01:41:27.615Z,19.48
2017-02-06T01:42:07.738Z,19.47
2017-02-06T01:42:48.426Z,19.46
2017-02-06T01:43:29.129Z,19.48
2017-02-06T01:44:09.784Z,19.39
2017-02-06T01:44:51.060Z,19.28
2017-02-06T01:45:31.684Z,19.32
2017-02-06T01:46:12.397Z,19.33
2017-02-06T01:46:53.148Z,19.35
2017-02-06T01:47:33.775Z,19.39
2017-02-06T01:48:14.494Z,19.46
2017-02-06T01:48:55.195Z,19.42
2017-02-06T01:49:35.878Z,19.4
2017-02-06T01:50:16.519Z,19.47
2017-02-06T01:50:57.221Z,19.38
2017-02-06T01:51:37.966Z,19.5
2017-02-06T01:52:18.635Z,19.48
2017-02-06T01:52:59.355Z,19.54
2017-02-06T01:53:40.041Z,19.38
2017-02-06T01:54:20.711Z,19.47
2017-02-06T01:55:01.356Z,19.39
2017-02-06T01:55:42.053Z,19.42
2017-02-06T01:56:22.720Z,19.4
2017-02-06T01:57:03.368Z,19.29
2017-02-06T01:57:44.028Z,19.46
2017-02-06T01:58:24.675Z,19.36
2017-02-06T01:59:05.317Z,19.38
2017-02-06T01:59:45.951Z,19.38
2017-02-06T02:00:26.620Z,19.43
2017-02-06T02:01:07.260Z,19.42
2017-02-06T02:01:47.942Z,19.42
2017-02-06T02:02:28.613Z,19.43
2017-02-06T02:03:09.289Z,19.43
2017-02-06T02:03:49.946Z,19.42
2017-02-06T02:04:30.644Z,19.42
2017-02-06T02:05:11.374Z,19.4
2017-02-06T02:05:52.008Z,19.46
2017-02-06T02:06:32.677Z,19.39
2017-02-06T02:07:13.347Z,19.39
2017-02-06T02:07:53.997Z,19.4
2017-02-06T02:08:34.663Z,19.43
2017-02-06T02:09:15.336Z,19.38
2017-02-06T02:09:55.977Z,19.33
2017-02-06T02:10:36.606Z,19.33
2017-02-06T02:11:17.314Z,19.36
2017-02-06T02:11:57.974Z,19.38
2017-02-06T02:12:38.615Z,19.46
2017-02-06T02:13:19.305Z,19.36
2017-02-06T02:14:00.074Z,19.43
2017-02-06T02:14:40.695Z,19.36
2017-02-06T02:15:21.327Z,19.43
2017-02-06T02:16:02.019Z,19.31
2017-02-06T02:16:42.672Z,19.29
2017-02-06T02:17:23.313Z,19.36
2017-02-06T02:18:04.013Z,19.38
2017-02-06T02:18:44.619Z,19.32
2017-02-06T02:19:25.271Z,19.4
2017-02-06T02:20:06.017Z,19.28
2017-02-06T02:20:46.728Z,19.33
2017-02-06T02:21:27.379Z,19.39
2017-02-06T02:22:08.058Z,19.35
2017-02-06T02:22:48.786Z,19.43
2017-02-06T02:23:29.417Z,19.33
2017-02-06T02:24:10.150Z,19.42
2017-02-06T02:24:50.801Z,19.4
2017-02-06T02:25:31.437Z,19.46
2017-02-06T02:26:12.159Z,19.38
2017-02-06T02:26:52.784Z,19.36
2017-02-06T02:27:33.507Z,19.38
2017-02-06T02:28:14.185Z,19.38
2017-02-06T02:28:54.834Z,19.4
2017-02-06T02:29:35.548Z,19.47
2017-02-06T02:30:16.247Z,19.36
2017-02-06T02:30:56.902Z,19.38
2017-02-06T02:31:37.587Z,19.43
2017-02-06T02:32:18.282Z,19.43
2017-02-06T02:32:58.924Z,19.48
2017-02-06T02:33:39.563Z,19.4
2017-02-06T02:34:20.249Z,19.36
2017-02-06T02:35:00.901Z,19.42
2017-02-06T02:35:41.566Z,19.43
2017-02-06T02:36:22.326Z,19.32
2017-02-06T02:37:02.999Z,19.38
2017-02-06T02:37:43.667Z,19.32
2017-02-06T02:38:24.294Z,19.25
2017-02-06T02:39:04.983Z,19.36
2017-02-06T02:39:45.609Z,19.39
2017-02-06T02:40:26.233Z,19.32
2017-02-06T02:41:06.955Z,19.24
2017-02-06T02:41:47.590Z,19.33
2017-02-06T02:42:28.219Z,19.32
2017-02-06T02:43:08.913Z,19.35
2017-02-06T02:43:49.540Z,19.33
2017-02-06T02:44:30.167Z,19.36
2017-02-06T02:45:10.841Z,19.35
2017-02-06T02:45:51.475Z,19.32
2017-02-06T02:46:32.144Z,19.36
2017-02-06T02:47:12.848Z,19.36
2017-02-06T02:47:53.594Z,19.25
2017-02-06T02:48:34.253Z,19.33
2017-02-06T02:49:14.887Z,19.39
2017-02-06T02:49:55.621Z,19.36
2017-02-06T02:50:36.253Z,19.31
2017-02-06T02:51:16.885Z,19.31
2017-02-06T02:51:57.555Z,19.36
2017-02-06T02:52:38.202Z,19.31
2017-02-06T02:53:18.935Z,19.35
2017-02-06T02:53:59.593Z,19.35
2017-02-06T02:54:40.234Z,19.4
2017-02-06T02:55:20.888Z,19.25
2017-02-06T02:56:01.587Z,19.35
2017-02-06T02:56:42.223Z,19.29
2017-02-06T02:57:22.855Z,19.29
2017-02-06T02:58:03.547Z,19.28
2017-02-06T02:58:44.255Z,19.33
2017-02-06T02:59:24.899Z,19.43
2017-02-06T03:00:05.644Z,19.42
2017-02-06T03:00:46.323Z,19.43
2017-02-06T03:01:27.033Z,19.32
2017-02-06T03:02:07.672Z,19.32
2017-02-06T03:02:49.938Z,19.4
2017-02-06T03:03:30.592Z,19.33
2017-02-06T03:04:11.335Z,19.31
2017-02-06T03:04:52.027Z,19.43
2017-02-06T03:05:32.699Z,19.4
2017-02-06T03:06:13.371Z,19.39
2017-02-06T03:06:54.075Z,19.33
2017-02-06T03:07:34.730Z,19.36
2017-02-06T03:08:15.370Z,19.33
2017-02-06T03:08:56.101Z,19.46
2017-02-06T03:09:36.841Z,19.36
2017-02-06T03:10:17.474Z,19.35
2017-02-06T03:10:58.165Z,19.21
2017-02-06T03:11:38.896Z,19.38
2017-02-06T03:12:19.526Z,19.21
2017-02-06T03:13:00.159Z,19.46
2017-02-06T03:13:40.852Z,19.35
2017-02-06T03:14:21.489Z,19.33
2017-02-06T03:15:02.118Z,19.28
2017-02-06T03:15:42.840Z,19.38
2017-02-06T03:16:23.570Z,19.36
2017-02-06T03:17:04.194Z,19.36
2017-02-06T03:17:44.860Z,19.42
2017-02-06T03:18:25.529Z,19.31
2017-02-06T03:19:06.161Z,19.38
2017-02-06T03:19:46.834Z,19.33
2017-02-06T03:20:27.558Z,19.36
2017-02-06T03:21:08.253Z,19.39
2017-02-06T03:21:48.897Z,19.31
2017-02-06T03:22:29.582Z,19.39
2017-02-06T03:23:10.299Z,19.38
2017-02-06T03:23:50.922Z,19.32
2017-02-06T03:24:31.676Z,19.39
2017-02-06T03:25:12.359Z,19.29
2017-02-06T03:25:53.087Z,19.46
2017-02-06T03:26:33.731Z,19.31
2017-02-06T03:27:14.388Z,19.43
2017-02-06T03:27:55.098Z,19.31
2017-02-06T03:28:35.744Z,19.35
2017-02-06T03:29:16.372Z,19.31
2017-02-06T03:29:57.964Z,19.36
2017-02-06T03:30:38.587Z,19.4
2017-02-06T03:31:19.216Z,19.29
2017-02-06T03:31:59.946Z,19.32
2017-02-06T03:32:40.577Z,19.47
2017-02-06T03:33:21.391Z,19.38
2017-02-06T03:34:02.094Z,19.25
2017-02-06T03:34:42.716Z,19.29
2017-02-06T03:35:23.337Z,19.28
2017-02-06T03:36:04.034Z,19.4
2017-02-06T03:36:44.756Z,19.33
2017-02-06T03:37:25.393Z,19.38
2017-02-06T03:38:06.068Z,19.33
2017-02-06T03:38:46.790Z,19.33
2017-02-06T03:39:27.545Z,19.32
2017-02-06T03:40:08.202Z,19.39
2017-02-06T03:40:48.846Z,19.42
2017-02-06T03:41:29.613Z,19.36
2017-02-06T03:42:10.262Z,19.43
2017-02-06T03:42:50.899Z,19.38
2017-02-06T03:43:31.583Z,19.5
2017-02-06T03:44:12.262Z,19.46
2017-02-06T03:44:52.856Z,19.33
2017-02-06T03:45:34.038Z,19.33
2017-02-06T03:46:14.721Z,19.36
2017-02-06T03:46:55.349Z,19.33
2017-02-06T03:47:35.980Z,19.32
2017-02-06T03:48:16.725Z,19.31
2017-02-06T03:48:57.424Z,19.33
2017-02-06T03:49:38.097Z,19.33
2017-02-06T03:50:18.745Z,19.36
2017-02-06T03:51:00.254Z,19.32
2017-02-06T03:51:40.881Z,19.28
2017-02-06T03:52:21.565Z,19.32
2017-02-06T03:53:02.272Z,19.31
2017-02-06T03:53:42.933Z,19.31
2017-02-06T03:54:23.598Z,19.28
2017-02-06T03:55:04.272Z,19.35
2017-02-06T03:55:44.926Z,19.36
2017-02-06T03:56:25.546Z,19.33
2017-02-06T03:57:06.188Z,19.28
2017-02-06T03:57:46.840Z,19.43
2017-02-06T03:58:27.491Z,19.39
2017-02-06T03:59:08.159Z,19.36
2017-02-06T03:59:48.793Z,19.43
2017-02-06T04:00:29.440Z,19.33
2017-02-06T04:01:10.084Z,19.36
2017-02-06T04:01:50.764Z,19.35
2017-02-06T04:02:31.419Z,19.32
2017-02-06T04:03:12.078Z,19.33
2017-02-06T04:03:52.761Z,19.35
2017-02-06T04:04:33.381Z,19.39
2017-02-06T04:05:14.123Z,19.39
2017-02-06T04:05:54.786Z,19.33
2017-02-06T04:06:35.498Z,19.32
2017-02-06T04:07:16.122Z,19.36
2017-02-06T04:07:56.757Z,19.32
2017-02-06T04:08:37.425Z,19.38
2017-02-06T04:09:18.050Z,19.33
2017-02-06T04:09:58.675Z,19.33
2017-02-06T04:10:39.299Z,19.35
2017-02-06T04:11:19.927Z,19.36
2017-02-06T04:12:00.613Z,19.36
2017-02-06T04:12:41.285Z,19.33
2017-02-06T04:13:21.932Z,19.25
2017-02-06T04:14:02.610Z,19.33
2017-02-06T04:14:43.281Z,19.35
2017-02-06T04:15:23.932Z,19.39
2017-02-06T04:16:04.578Z,19.4
2017-02-06T04:16:45.280Z,19.39
2017-02-06T04:17:25.900Z,19.33
2017-02-06T04:18:06.516Z,19.33
2017-02-06T04:18:48.109Z,19.36
2017-02-06T04:19:28.748Z,19.33
2017-02-06T04:20:09.421Z,19.32
2017-02-06T04:20:50.135Z,19.33
2017-02-06T04:21:30.843Z,19.42
2017-02-06T04:22:11.478Z,19.31
2017-02-06T04:22:52.186Z,19.39
2017-02-06T04:23:32.918Z,19.25
2017-02-06T04:24:13.548Z,19.32
2017-02-06T04:24:54.259Z,19.36
2017-02-06T04:25:34.934Z,19.33
2017-02-06T04:26:15.561Z,19.23
2017-02-06T04:26:56.264Z,19.32
2017-02-06T04:27:36.956Z,19.29
2017-02-06T04:28:17.654Z,19.35
2017-02-06T04:28:58.281Z,19.28
2017-02-06T04:29:38.940Z,19.31
2017-02-06T04:30:19.639Z,19.28
2017-02-06T04:31:00.284Z,19.31
2017-02-06T04:31:40.922Z,19.25
2017-02-06T04:32:21.587Z,19.23
2017-02-06T04:33:02.226Z,19.24
2017-02-06T04:33:43.774Z,19.31
2017-02-06T04:34:24.472Z,19.28
2017-02-06T04:35:05.123Z,19.29
2017-02-06T04:35:45.829Z,19.24
2017-02-06T04:36:26.537Z,19.32
2017-02-06T04:37:07.184Z,19.29
2017-02-06T04:37:47.810Z,19.28
2017-02-06T04:38:28.567Z,19.25
2017-02-06T04:39:09.295Z,19.25
2017-02-06T04:39:49.939Z,19.29
2017-02-06T04:40:30.583Z,19.31
2017-02-06T04:41:11.234Z,19.29
2017-02-06T04:41:51.884Z,19.38
2017-02-06T04:42:33.399Z,19.32
2017-02-06T04:43:14.155Z,19.31
2017-02-06T04:43:54.785Z,19.33
2017-02-06T04:44:35.448Z,19.33
2017-02-06T04:45:16.168Z,19.25
2017-02-06T04:45:56.839Z,19.32
2017-02-06T04:46:37.486Z,19.29
2017-02-06T04:47:18.213Z,19.25
2017-02-06T04:47:58.977Z,19.29
2017-02-06T04:48:39.627Z,19.29
2017-02-06T04:49:20.336Z,19.29
2017-02-06T04:50:01.016Z,19.29
2017-02-06T04:50:41.648Z,19.25
2017-02-06T04:51:22.301Z,19.25
2017-02-06T04:52:02.998Z,19.31
2017-02-06T04:52:43.634Z,19.29
2017-02-06T04:53:24.256Z,19.25
2017-02-06T04:54:04.986Z,19.29
2017-02-06T04:54:45.690Z,19.29
2017-02-06T04:55:26.313Z,19.32
2017-02-06T04:56:07.080Z,19.24
2017-02-06T04:56:47.741Z,19.32
2017-02-06T04:57:28.448Z,19.29
2017-02-06T04:58:09.075Z,19.28
2017-02-06T04:58:49.776Z,19.29
2017-02-06T04:59:30.477Z,19.28
2017-02-06T05:00:11.101Z,19.18
2017-02-06T05:00:51.773Z,19.25
2017-02-06T05:01:32.427Z,19.31
2017-02-06T05:02:13.056Z,19.24
2017-02-06T05:02:53.732Z,19.31
2017-02-06T05:03:34.416Z,19.31
2017-02-06T05:04:15.060Z,19.25
2017-02-06T05:04:55.713Z,19.18
2017-02-06T05:05:36.411Z,19.31
2017-02-06T05:06:17.787Z,19.31
2017-02-06T05:06:58.488Z,19.31
2017-02-06T05:07:39.136Z,19.23
2017-02-06T05:08:19.767Z,19.21
2017-02-06T05:09:00.395Z,19.21
2017-02-06T05:09:41.052Z,19.28
2017-02-06T05:10:21.694Z,19.28
2017-02-06T05:11:02.438Z,19.18
2017-02-06T05:11:43.082Z,19.33
2017-02-06T05:12:23.757Z,19.25
2017-02-06T05:13:04.362Z,19.25
2017-02-06T05:13:45.074Z,19.28
2017-02-06T05:14:26.290Z,19.29
2017-02-06T05:15:07.034Z,19.28
2017-02-06T05:15:47.798Z,19.25
2017-02-06T05:16:28.447Z,19.28
2017-02-06T05:17:09.106Z,19.31
2017-02-06T05:17:49.828Z,19.31
2017-02-06T05:18:30.586Z,19.35
2017-02-06T05:19:11.134Z,19.24
2017-02-06T05:19:51.795Z,19.29
2017-02-06T05:20:32.527Z,19.25
2017-02-06T05:21:13.171Z,19.21
2017-02-06T05:21:53.888Z,19.36
2017-02-06T05:22:34.559Z,19.29
2017-02-06T05:23:15.195Z,19.24
2017-02-06T05:23:55.956Z,19.29
2017-02-06T05:24:36.595Z,19.24
2017-02-06T05:25:17.331Z,19.17
2017-02-06T05:25:57.972Z,19.24
2017-02-06T05:26:38.610Z,19.29
2017-02-06T05:27:19.295Z,19.24
2017-02-06T05:27:59.924Z,19.25
2017-02-06T05:28:40.607Z,19.24
2017-02-06T05:29:21.241Z,19.29
2017-02-06T05:30:01.882Z,19.24
2017-02-06T05:30:42.528Z,19.25
2017-02-06T05:31:23.261Z,19.31
2017-02-06T05:32:03.892Z,19.28
2017-02-06T05:32:44.594Z,19.25
2017-02-06T05:33:25.238Z,19.23
2017-02-06T05:34:05.976Z,19.29
2017-02-06T05:34:46.617Z,19.24
2017-02-06T05:35:27.264Z,19.25
2017-02-06T05:36:07.972Z,19.31
2017-02-06T05:36:48.616Z,19.31
2017-02-06T05:37:29.311Z,19.25
2017-02-06T05:38:10.084Z,19.29
2017-02-06T05:38:50.779Z,19.29
2017-02-06T05:39:31.420Z,19.28
2017-02-06T05:40:12.684Z,19.29
2017-02-06T05:40:53.298Z,19.28
2017-02-06T05:41:34.037Z,19.29
2017-02-06T05:42:14.801Z,19.29
2017-02-06T05:42:55.460Z,19.25
2017-02-06T05:43:36.114Z,19.36
2017-02-06T05:44:16.793Z,19.25
2017-02-06T05:44:57.424Z,19.29
2017-02-06T05:45:38.144Z,19.18
2017-02-06T05:46:18.826Z,19.23
2017-02-06T05:46:59.541Z,19.29
2017-02-06T05:47:40.174Z,19.31
2017-02-06T05:48:20.800Z,19.29
2017-02-06T05:49:01.510Z,19.25
2017-02-06T05:49:42.141Z,19.29
2017-02-06T05:50:22.814Z,19.28
2017-02-06T05:51:03.537Z,19.28
2017-02-06T05:51:44.160Z,19.25
2017-02-06T05:52:24.798Z,19.15
2017-02-06T05:53:05.487Z,19.32
2017-02-06T05:53:46.211Z,19.18
2017-02-06T05:54:26.859Z,19.29
2017-02-06T05:55:07.489Z,19.14
2017-02-06T05:55:48.134Z,19.28
2017-02-06T05:56:28.802Z,19.21
2017-02-06T05:57:09.432Z,19.24
2017-02-06T05:57:50.185Z,19.18
2017-02-06T05:58:30.793Z,19.23
2017-02-06T05:59:11.525Z,19.14
2017-02-06T05:59:52.244Z,19.25
2017-02-06T06:00:32.875Z,19.23
2017-02-06T06:01:13.502Z,19.24
2017-02-06T06:01:54.142Z,19.28
2017-02-06T06:02:34.874Z,19.25
2017-02-06T06:03:15.491Z,19.28
2017-02-06T06:03:56.160Z,19.29
2017-02-06T06:04:36.786Z,19.18
2017-02-06T06:05:17.404Z,19.31
2017-02-06T06:05:58.090Z,19.29
2017-02-06T06:06:38.872Z,19.29
2017-02-06T06:07:19.530Z,19.28
2017-02-06T06:08:00.184Z,19.24
2017-02-06T06:08:41.563Z,19.28
2017-02-06T06:09:22.187Z,19.23
2017-02-06T06:10:02.950Z,19.29
2017-02-06T06:10:43.684Z,19.25
2017-02-06T06:11:24.310Z,19.18
2017-02-06T06:12:04.962Z,19.28
2017-02-06T06:12:45.777Z,19.25
2017-02-06T06:13:27.361Z,19.18
2017-02-06T06:14:08.018Z,19.18
2017-02-06T06:14:48.732Z,19.23
2017-02-06T06:15:29.352Z,19.2
2017-02-06T06:16:09.978Z,19.14
2017-02-06T06:16:50.677Z,19.18
2017-02-06T06:17:31.401Z,19.21
2017-02-06T06:18:12.084Z,19.2
2017-02-06T06:18:52.781Z,19.17
2017-02-06T06:19:33.493Z,19.23
2017-02-06T06:20:14.186Z,19.2
2017-02-06T06:20:54.802Z,19.18
2017-02-06T06:21:35.503Z,19.21
2017-02-06T06:22:16.202Z,19.2
2017-02-06T06:22:56.843Z,19.25
2017-02-06T06:23:37.501Z,19.18
2017-02-06T06:24:18.159Z,19.17
2017-02-06T06:24:58.800Z,19.28
2017-02-06T06:25:39.476Z,19.18
2017-02-06T06:26:20.188Z,19.2
2017-02-06T06:27:00.866Z,19.18
2017-02-06T06:27:41.502Z,19.18
2017-02-06T06:28:22.168Z,19.17
2017-02-06T06:29:02.801Z,19.24
2017-02-06T06:29:43.442Z,19.21
2017-02-06T06:30:24.143Z,19.23
2017-02-06T06:31:04.841Z,19.14
2017-02-06T06:31:45.474Z,19.15
2017-02-06T06:32:26.149Z,19.2
2017-02-06T06:33:06.883Z,19.23
2017-02-06T06:33:47.646Z,19.18
2017-02-06T06:34:28.276Z,19.17
2017-02-06T06:35:09.003Z,19.18
2017-02-06T06:35:49.700Z,19.23
2017-02-06T06:36:30.321Z,19.24
2017-02-06T06:37:10.990Z,19.2
2017-02-06T06:37:51.699Z,19.18
2017-02-06T06:38:32.348Z,19.2
2017-02-06T06:39:12.989Z,19.23
2017-02-06T06:39:53.684Z,19.17
2017-02-06T06:40:34.332Z,19.24
2017-02-06T06:41:14.963Z,19.17
2017-02-06T06:41:55.631Z,19.17
2017-02-06T06:42:36.304Z,19.18
2017-02-06T06:43:16.932Z,19.25
2017-02-06T06:43:57.623Z,19.18
2017-02-06T06:44:38.326Z,19.28
2017-02-06T06:45:19.013Z,19.25
2017-02-06T06:45:59.677Z,19.15
2017-02-06T06:46:40.407Z,19.11
2017-02-06T06:47:21.143Z,19.23
2017-02-06T06:48:01.743Z,19.18
2017-02-06T06:48:42.393Z,19.17
2017-02-06T06:49:23.115Z,19.14
2017-02-06T06:50:03.788Z,19.17
2017-02-06T06:50:44.449Z,19.23
2017-02-06T06:51:25.212Z,19.18
2017-02-06T06:52:06.832Z,19.2
2017-02-06T06:52:47.469Z,19.28
2017-02-06T06:53:28.170Z,19.29
2017-02-06T06:54:08.812Z,19.17
2017-02-06T06:54:49.448Z,19.29
2017-02-06T06:55:30.174Z,19.31
2017-02-06T06:56:10.875Z,19.28
2017-02-06T06:56:51.522Z,19.24
2017-02-06T06:57:32.175Z,19.25
2017-02-06T06:58:12.865Z,19.31
2017-02-06T06:58:53.504Z,19.23
2017-02-06T06:59:34.129Z,19.25
2017-02-06T07:00:14.792Z,19.17
2017-02-06T07:00:55.432Z,19.2
2017-02-06T07:01:36.117Z,19.2
2017-02-06T07:02:16.848Z,19.17
2017-02-06T07:02:57.462Z,19.23
2017-02-06T07:03:38.109Z,19.21
2017-02-06T07:04:18.799Z,19.2
2017-02-06T07:04:59.493Z,19.24
2017-02-06T07:05:40.120Z,19.25
2017-02-06T07:06:20.898Z,19.23
2017-02-06T07:07:01.611Z,19.29
2017-02-06T07:07:42.248Z,19.18
2017-02-06T07:08:22.889Z,19.29
2017-02-06T07:09:03.540Z,19.15
2017-02-06T07:09:44.165Z,19.23
2017-02-06T07:10:24.797Z,19.15
2017-02-06T07:11:05.486Z,19.17
2017-02-06T07:11:46.224Z,19.2
2017-02-06T07:12:26.864Z,19.11
2017-02-06T07:13:07.597Z,19.23
2017-02-06T07:13:48.287Z,19.2
2017-02-06T07:14:28.915Z,19.17
2017-02-06T07:15:09.591Z,19.2
2017-02-06T07:15:50.272Z,19.15
2017-02-06T07:16:31.012Z,19.17
2017-02-06T07:17:11.641Z,19.23
2017-02-06T07:17:52.276Z,19.2
2017-02-06T07:18:32.989Z,19.15
2017-02-06T07:19:13.633Z,19.2
2017-02-06T07:19:54.288Z,19.17
2017-02-06T07:20:35.016Z,19.2
2017-02-06T07:21:15.705Z,19.21
2017-02-06T07:21:56.340Z,19.13
2017-02-06T07:22:36.993Z,19.23
2017-02-06T07:23:18.345Z,19.17
2017-02-06T07:23:59.063Z,19.15
2017-02-06T07:24:39.765Z,19.2
2017-02-06T07:25:20.398Z,19.13
2017-02-06T07:26:01.951Z,19.13
2017-02-06T07:26:42.612Z,19.18
2017-02-06T07:27:23.270Z,19.2
2017-02-06T07:28:04.001Z,19.14
2017-02-06T07:28:44.705Z,19.15
2017-02-06T07:29:25.370Z,19.1
2017-02-06T07:30:06.019Z,19.14
2017-02-06T07:30:46.744Z,19.17
2017-02-06T07:31:27.480Z,19.21
2017-02-06T07:32:08.101Z,19.23
2017-02-06T07:32:48.789Z,19.2
2017-02-06T07:33:29.494Z,19.21
2017-02-06T07:34:10.153Z,19.21
2017-02-06T07:34:50.808Z,19.21
2017-02-06T07:35:31.523Z,19.02
2017-02-06T07:36:12.279Z,19.11
2017-02-06T07:36:52.908Z,19.11
2017-02-06T07:37:33.596Z,19.15
2017-02-06T07:38:14.290Z,19.18
2017-02-06T07:38:54.983Z,19.21
2017-02-06T07:39:35.555Z,19.1
2017-02-06T07:40:16.252Z,19.17
2017-02-06T07:40:56.879Z,19.29
2017-02-06T07:41:37.504Z,19.21
2017-02-06T07:42:18.190Z,19.23
2017-02-06T07:42:58.863Z,19.15
2017-02-06T07:43:39.492Z,19.21
2017-02-06T07:44:20.204Z,19.17
2017-02-06T07:45:00.943Z,19.2
2017-02-06T07:45:41.578Z,19.15
2017-02-06T07:46:22.259Z,19.15
2017-02-06T07:47:02.949Z,19.18
2017-02-06T07:47:43.626Z,19.15
2017-02-06T07:48:24.251Z,19.11
2017-02-06T07:49:04.945Z,19.14
2017-02-06T07:49:45.660Z,19.15
2017-02-06T07:50:26.288Z,19.21
2017-02-06T07:51:06.941Z,19.15
2017-02-06T07:51:47.702Z,19.14
2017-02-06T07:52:28.324Z,19.18
2017-02-06T07:53:08.980Z,19.17
2017-02-06T07:53:49.678Z,19.17
2017-02-06T07:54:30.425Z,19.17
2017-02-06T07:55:11.055Z,19.14
2017-02-06T07:55:51.726Z,19.2
2017-02-06T07:56:32.355Z,19.08
2017-02-06T07:57:12.989Z,19.13
2017-02-06T07:57:53.668Z,19.14
2017-02-06T07:58:34.437Z,19.24
2017-02-06T07:59:15.069Z,19.2
2017-02-06T07:59:55.730Z,19.18
2017-02-06T08:00:37.169Z,19.11
2017-02-06T08:01:17.814Z,19.2
2017-02-06T08:01:58.529Z,19.1
2017-02-06T08:02:39.240Z,19.2
2017-02-06T08:03:19.881Z,19.17
2017-02-06T08:04:00.614Z,19.17
2017-02-06T08:04:41.288Z,19.14
2017-02-06T08:05:21.922Z,19.17
2017-02-06T08:06:02.552Z,19.14
2017-02-06T08:06:43.291Z,19.2
2017-02-06T08:07:24.024Z,19.14
2017-02-06T08:08:04.668Z,19.2
2017-02-06T08:08:45.418Z,19.21
2017-02-06T08:09:26.160Z,19.17
2017-02-06T08:10:06.792Z,19.24
2017-02-06T08:10:47.431Z,19.17
2017-02-06T08:11:28.151Z,19.17
2017-02-06T08:12:08.850Z,19.2
2017-02-06T08:12:49.480Z,19.18
2017-02-06T08:13:30.236Z,19.18
2017-02-06T08:14:10.889Z,19.21
2017-02-06T08:14:51.633Z,19.15
2017-02-06T08:15:32.304Z,19.15
2017-02-06T08:16:12.986Z,19.2
2017-02-06T08:16:53.613Z,19.15
2017-02-06T08:17:34.242Z,19.14
2017-02-06T08:18:14.867Z,19.14
2017-02-06T08:18:55.615Z,19.14
2017-02-06T08:19:36.245Z,19.23
2017-02-06T08:20:16.901Z,19.17
2017-02-06T08:20:57.579Z,19.17
2017-02-06T08:21:38.300Z,19.21
2017-02-06T08:22:18.872Z,19.11
2017-02-06T08:22:59.541Z,19.2
2017-02-06T08:23:40.198Z,19.17
2017-02-06T08:24:20.838Z,19.2
2017-02-06T08:25:01.551Z,19.18
2017-02-06T08:25:42.190Z,19.18
2017-02-06T08:26:22.814Z,19.17
2017-02-06T08:27:03.489Z,19.13
2017-02-06T08:27:44.163Z,19.15
2017-02-06T08:28:24.813Z,19.08
2017-02-06T08:29:05.472Z,19.06
2017-02-06T08:29:46.183Z,19.14
2017-02-06T08:30:26.808Z,19.13
2017-02-06T08:31:07.485Z,19.15
2017-02-06T08:31:48.170Z,19.17
2017-02-06T08:32:28.795Z,19.21
2017-02-06T08:33:09.424Z,19.15
2017-02-06T08:33:50.126Z,19.14
2017-02-06T08:34:30.766Z,19.11
2017-02-06T08:35:11.399Z,19.21
2017-02-06T08:35:52.025Z,19.24
2017-02-06T08:36:32.700Z,19.14
2017-02-06T08:37:13.348Z,19.13
2017-02-06T08:37:54.054Z,19.02
2017-02-06T08:38:34.688Z,19.17
2017-02-06T08:39:15.317Z,19.08
2017-02-06T08:39:56.011Z,19.15
2017-02-06T08:40:36.748Z,19.14
2017-02-06T08:41:17.378Z,19.14
2017-02-06T08:41:58.137Z,19.18
2017-02-06T08:42:38.865Z,19.14
2017-02-06T08:43:19.493Z,19.08
2017-02-06T08:44:00.117Z,19.18
2017-02-06T08:44:40.838Z,19.14
2017-02-06T08:45:21.532Z,19.13
2017-02-06T08:46:02.159Z,19.17